sensor_id;sensor_type;location;lat;lon;timestamp;P1;durP1;ratioP1;P2;durP2;ratioP2
25479;SDS011;13393;49.378;8.686;2023-08-17T00:01:36;4.43;;;2.00;;
25479;SDS011;13393;49.378;8.686;2023-08-17T00:04:03;7.35;;;2.17;;
25479;SDS011;13393;49.378;8.686;2023-08-17T00:06:29;8.18;;;2.30;;
25479;SDS011;13393;49.378;8.686;2023-08-17T00:08:56;9.95;;;2.30;;
25479;SDS011;13393;49.378;8.686;2023-08-17T00:11:24;2.60;;;2.22;;
25479;SDS011;13393;49.378;8.686;2023-08-17T00:13:50;6.50;;;1.73;;
25479;SDS011;13393;49.378;8.686;2023-08-17T00:16:17;5.95;;;1.88;;
25479;SDS011;13393;49.378;8.686;2023-08-17T00:18:43;5.38;;;2.17;;
25479;SDS011;13393;49.378;8.686;2023-08-17T00:21:10;6.10;;;2.28;;
25479;SDS011;13393;49.378;8.686;2023-08-17T00:23:39;3.65;;;2.25;;
25479;SDS011;13393;49.378;8.686;2023-08-17T00:26:06;4.80;;;2.58;;
25479;SDS011;13393;49.378;8.686;2023-08-17T00:28:34;4.93;;;2.38;;
25479;SDS011;13393;49.378;8.686;2023-08-17T00:31:00;4.15;;;2.28;;
25479;SDS011;13393;49.378;8.686;2023-08-17T00:33:27;4.47;;;2.58;;
25479;SDS011;13393;49.378;8.686;2023-08-17T00:35:53;9.95;;;2.70;;
25479;SDS011;13393;49.378;8.686;2023-08-17T00:38:20;6.00;;;2.22;;
25479;SDS011;13393;49.378;8.686;2023-08-17T00:40:47;4.13;;;2.60;;
25479;SDS011;13393;49.378;8.686;2023-08-17T00:43:13;2.33;;;2.00;;
25479;SDS011;13393;49.378;8.686;2023-08-17T00:45:41;2.53;;;2.22;;
25479;SDS011;13393;49.378;8.686;2023-08-17T00:48:09;5.72;;;2.22;;
25479;SDS011;13393;49.378;8.686;2023-08-17T00:50:35;5.93;;;2.20;;
25479;SDS011;13393;49.378;8.686;2023-08-17T00:53:03;2.67;;;2.20;;
25479;SDS011;13393;49.378;8.686;2023-08-17T00:55:31;5.65;;;2.17;;
25479;SDS011;13393;49.378;8.686;2023-08-17T00:57:59;4.28;;;2.47;;
25479;SDS011;13393;49.378;8.686;2023-08-17T01:00:26;7.40;;;2.60;;
25479;SDS011;13393;49.378;8.686;2023-08-17T01:02:54;5.63;;;2.50;;
25479;SDS011;13393;49.378;8.686;2023-08-17T01:05:21;7.75;;;2.55;;
25479;SDS011;13393;49.378;8.686;2023-08-17T01:07:47;5.88;;;2.22;;
25479;SDS011;13393;49.378;8.686;2023-08-17T01:10:14;4.07;;;2.20;;
25479;SDS011;13393;49.378;8.686;2023-08-17T01:12:42;3.55;;;2.20;;
25479;SDS011;13393;49.378;8.686;2023-08-17T01:15:11;8.70;;;2.88;;
25479;SDS011;13393;49.378;8.686;2023-08-17T01:17:42;3.38;;;2.35;;
25479;SDS011;13393;49.378;8.686;2023-08-17T01:20:11;5.78;;;2.53;;
25479;SDS011;13393;49.378;8.686;2023-08-17T01:22:41;4.53;;;2.22;;
25479;SDS011;13393;49.378;8.686;2023-08-17T01:25:11;4.75;;;2.90;;
25479;SDS011;13393;49.378;8.686;2023-08-17T01:27:39;4.18;;;2.25;;
25479;SDS011;13393;49.378;8.686;2023-08-17T01:30:06;4.40;;;2.20;;
25479;SDS011;13393;49.378;8.686;2023-08-17T01:32:36;4.55;;;2.30;;
25479;SDS011;13393;49.378;8.686;2023-08-17T01:35:04;4.15;;;2.58;;
25479;SDS011;13393;49.378;8.686;2023-08-17T01:37:34;7.28;;;2.17;;
25479;SDS011;13393;49.378;8.686;2023-08-17T01:40:02;4.35;;;2.22;;
25479;SDS011;13393;49.378;8.686;2023-08-17T01:42:32;8.98;;;2.72;;
25479;SDS011;13393;49.378;8.686;2023-08-17T01:44:59;6.50;;;2.72;;
25479;SDS011;13393;49.378;8.686;2023-08-17T01:47:25;3.22;;;2.45;;
25479;SDS011;13393;49.378;8.686;2023-08-17T01:49:52;3.42;;;2.00;;
25479;SDS011;13393;49.378;8.686;2023-08-17T01:52:19;5.50;;;2.10;;
25479;SDS011;13393;49.378;8.686;2023-08-17T01:54:45;3.45;;;2.60;;
25479;SDS011;13393;49.378;8.686;2023-08-17T01:57:12;4.78;;;2.63;;
25479;SDS011;13393;49.378;8.686;2023-08-17T01:59:40;3.63;;;2.05;;
25479;SDS011;13393;49.378;8.686;2023-08-17T02:02:07;4.13;;;2.47;;
25479;SDS011;13393;49.378;8.686;2023-08-17T02:04:39;2.95;;;2.22;;
25479;SDS011;13393;49.378;8.686;2023-08-17T02:07:06;4.68;;;2.47;;
25479;SDS011;13393;49.378;8.686;2023-08-17T02:09:32;2.55;;;2.20;;
25479;SDS011;13393;49.378;8.686;2023-08-17T02:11:59;4.78;;;2.42;;
25479;SDS011;13393;49.378;8.686;2023-08-17T02:14:25;11.70;;;2.63;;
25479;SDS011;13393;49.378;8.686;2023-08-17T02:16:53;3.28;;;2.15;;
25479;SDS011;13393;49.378;8.686;2023-08-17T02:19:21;5.22;;;2.15;;
25479;SDS011;13393;49.378;8.686;2023-08-17T02:21:47;6.90;;;2.67;;
25479;SDS011;13393;49.378;8.686;2023-08-17T02:24:14;4.28;;;2.60;;
25479;SDS011;13393;49.378;8.686;2023-08-17T02:26:40;5.15;;;2.50;;
25479;SDS011;13393;49.378;8.686;2023-08-17T02:29:07;5.05;;;2.55;;
25479;SDS011;13393;49.378;8.686;2023-08-17T02:31:33;3.75;;;2.30;;
25479;SDS011;13393;49.378;8.686;2023-08-17T02:34:01;8.23;;;2.72;;
25479;SDS011;13393;49.378;8.686;2023-08-17T02:36:31;6.05;;;2.20;;
25479;SDS011;13393;49.378;8.686;2023-08-17T02:38:57;6.20;;;2.10;;
25479;SDS011;13393;49.378;8.686;2023-08-17T02:41:24;10.85;;;2.50;;
25479;SDS011;13393;49.378;8.686;2023-08-17T02:43:51;4.10;;;2.35;;
25479;SDS011;13393;49.378;8.686;2023-08-17T02:46:17;3.60;;;2.17;;
25479;SDS011;13393;49.378;8.686;2023-08-17T02:48:44;3.45;;;2.05;;
25479;SDS011;13393;49.378;8.686;2023-08-17T02:51:11;8.90;;;2.50;;
25479;SDS011;13393;49.378;8.686;2023-08-17T02:53:38;10.45;;;2.88;;
25479;SDS011;13393;49.378;8.686;2023-08-17T02:56:05;9.40;;;2.30;;
25479;SDS011;13393;49.378;8.686;2023-08-17T02:58:31;4.60;;;2.30;;
25479;SDS011;13393;49.378;8.686;2023-08-17T03:00:58;5.30;;;2.05;;
25479;SDS011;13393;49.378;8.686;2023-08-17T03:03:24;6.03;;;2.28;;
25479;SDS011;13393;49.378;8.686;2023-08-17T03:05:51;5.57;;;2.22;;
25479;SDS011;13393;49.378;8.686;2023-08-17T03:08:19;7.13;;;2.40;;
25479;SDS011;13393;49.378;8.686;2023-08-17T03:10:48;4.07;;;2.35;;
25479;SDS011;13393;49.378;8.686;2023-08-17T03:13:15;3.40;;;2.38;;
25479;SDS011;13393;49.378;8.686;2023-08-17T03:15:42;7.80;;;2.50;;
25479;SDS011;13393;49.378;8.686;2023-08-17T03:18:08;5.10;;;2.47;;
25479;SDS011;13393;49.378;8.686;2023-08-17T03:20:35;5.97;;;2.20;;
25479;SDS011;13393;49.378;8.686;2023-08-17T03:23:02;3.58;;;2.53;;
25479;SDS011;13393;49.378;8.686;2023-08-17T03:25:32;4.40;;;2.20;;
25479;SDS011;13393;49.378;8.686;2023-08-17T03:27:59;7.70;;;2.53;;
25479;SDS011;13393;49.378;8.686;2023-08-17T03:30:25;5.50;;;2.42;;
25479;SDS011;13393;49.378;8.686;2023-08-17T03:32:52;7.60;;;2.45;;
25479;SDS011;13393;49.378;8.686;2023-08-17T03:35:20;3.90;;;2.15;;
25479;SDS011;13393;49.378;8.686;2023-08-17T03:37:47;2.67;;;2.30;;
25479;SDS011;13393;49.378;8.686;2023-08-17T03:40:13;8.52;;;2.67;;
25479;SDS011;13393;49.378;8.686;2023-08-17T03:42:42;4.55;;;2.38;;
25479;SDS011;13393;49.378;8.686;2023-08-17T03:45:08;9.05;;;3.10;;
25479;SDS011;13393;49.378;8.686;2023-08-17T03:47:35;7.53;;;2.60;;
25479;SDS011;13393;49.378;8.686;2023-08-17T03:50:01;4.50;;;2.45;;
25479;SDS011;13393;49.378;8.686;2023-08-17T03:52:28;9.60;;;2.67;;
25479;SDS011;13393;49.378;8.686;2023-08-17T03:54:54;3.80;;;2.25;;
25479;SDS011;13393;49.378;8.686;2023-08-17T03:57:21;8.65;;;2.83;;
25479;SDS011;13393;49.378;8.686;2023-08-17T03:59:49;4.32;;;2.50;;
25479;SDS011;13393;49.378;8.686;2023-08-17T04:02:16;5.68;;;2.85;;
25479;SDS011;13393;49.378;8.686;2023-08-17T04:04:42;3.92;;;2.17;;
25479;SDS011;13393;49.378;8.686;2023-08-17T04:07:09;8.10;;;2.58;;
25479;SDS011;13393;49.378;8.686;2023-08-17T04:09:43;6.82;;;2.45;;
25479;SDS011;13393;49.378;8.686;2023-08-17T04:12:09;5.80;;;2.78;;
25479;SDS011;13393;49.378;8.686;2023-08-17T04:14:36;6.45;;;2.53;;
25479;SDS011;13393;49.378;8.686;2023-08-17T04:17:04;5.13;;;2.10;;
25479;SDS011;13393;49.378;8.686;2023-08-17T04:19:31;3.78;;;2.33;;
25479;SDS011;13393;49.378;8.686;2023-08-17T04:22:02;10.20;;;2.60;;
25479;SDS011;13393;49.378;8.686;2023-08-17T04:24:28;5.03;;;2.50;;
25479;SDS011;13393;49.378;8.686;2023-08-17T04:26:55;4.82;;;2.53;;
25479;SDS011;13393;49.378;8.686;2023-08-17T04:29:21;7.10;;;2.50;;
25479;SDS011;13393;49.378;8.686;2023-08-17T04:31:48;5.75;;;2.30;;
25479;SDS011;13393;49.378;8.686;2023-08-17T04:34:15;6.05;;;2.63;;
25479;SDS011;13393;49.378;8.686;2023-08-17T04:36:42;6.10;;;2.70;;
25479;SDS011;13393;49.378;8.686;2023-08-17T04:39:09;6.03;;;2.63;;
25479;SDS011;13393;49.378;8.686;2023-08-17T04:41:35;5.45;;;2.63;;
25479;SDS011;13393;49.378;8.686;2023-08-17T04:44:02;3.90;;;2.75;;
25479;SDS011;13393;49.378;8.686;2023-08-17T04:46:28;4.38;;;2.92;;
25479;SDS011;13393;49.378;8.686;2023-08-17T04:48:54;7.85;;;3.17;;
25479;SDS011;13393;49.378;8.686;2023-08-17T04:51:22;6.30;;;2.90;;
25479;SDS011;13393;49.378;8.686;2023-08-17T04:53:49;4.38;;;3.13;;
25479;SDS011;13393;49.378;8.686;2023-08-17T04:56:15;7.40;;;3.00;;
25479;SDS011;13393;49.378;8.686;2023-08-17T04:58:42;8.13;;;3.13;;
25479;SDS011;13393;49.378;8.686;2023-08-17T05:01:09;6.40;;;3.10;;
25479;SDS011;13393;49.378;8.686;2023-08-17T05:03:35;9.05;;;2.80;;
25479;SDS011;13393;49.378;8.686;2023-08-17T05:06:02;6.10;;;2.53;;
25479;SDS011;13393;49.378;8.686;2023-08-17T05:08:30;3.42;;;2.55;;
25479;SDS011;13393;49.378;8.686;2023-08-17T05:10:56;5.75;;;2.80;;
25479;SDS011;13393;49.378;8.686;2023-08-17T05:13:23;5.22;;;2.78;;
25479;SDS011;13393;49.378;8.686;2023-08-17T05:15:49;5.25;;;2.90;;
25479;SDS011;13393;49.378;8.686;2023-08-17T05:18:18;5.20;;;2.53;;
25479;SDS011;13393;49.378;8.686;2023-08-17T05:20:44;6.80;;;2.90;;
25479;SDS011;13393;49.378;8.686;2023-08-17T05:23:11;7.93;;;3.38;;
25479;SDS011;13393;49.378;8.686;2023-08-17T05:25:39;7.25;;;2.35;;
25479;SDS011;13393;49.378;8.686;2023-08-17T05:28:05;6.50;;;3.05;;
25479;SDS011;13393;49.378;8.686;2023-08-17T05:30:32;5.38;;;3.20;;
25479;SDS011;13393;49.378;8.686;2023-08-17T05:32:58;5.68;;;3.38;;
25479;SDS011;13393;49.378;8.686;2023-08-17T05:35:25;5.10;;;3.10;;
25479;SDS011;13393;49.378;8.686;2023-08-17T05:37:51;7.97;;;3.08;;
25479;SDS011;13393;49.378;8.686;2023-08-17T05:40:18;5.78;;;3.58;;
25479;SDS011;13393;49.378;8.686;2023-08-17T05:42:46;6.90;;;3.88;;
25479;SDS011;13393;49.378;8.686;2023-08-17T05:45:12;8.00;;;3.95;;
25479;SDS011;13393;49.378;8.686;2023-08-17T05:47:41;6.60;;;3.78;;
25479;SDS011;13393;49.378;8.686;2023-08-17T05:50:08;5.57;;;3.88;;
25479;SDS011;13393;49.378;8.686;2023-08-17T05:52:34;5.88;;;4.60;;
25479;SDS011;13393;49.378;8.686;2023-08-17T05:55:01;7.47;;;4.82;;
25479;SDS011;13393;49.378;8.686;2023-08-17T05:57:28;6.20;;;5.63;;
25479;SDS011;13393;49.378;8.686;2023-08-17T05:59:56;7.03;;;5.28;;
25479;SDS011;13393;49.378;8.686;2023-08-17T06:02:23;6.63;;;4.70;;
25479;SDS011;13393;49.378;8.686;2023-08-17T06:04:49;9.43;;;6.10;;
25479;SDS011;13393;49.378;8.686;2023-08-17T06:07:16;8.18;;;5.55;;
25479;SDS011;13393;49.378;8.686;2023-08-17T06:09:43;9.20;;;6.22;;
25479;SDS011;13393;49.378;8.686;2023-08-17T06:12:12;9.60;;;6.50;;
25479;SDS011;13393;49.378;8.686;2023-08-17T06:14:39;10.32;;;7.40;;
25479;SDS011;13393;49.378;8.686;2023-08-17T06:17:08;10.60;;;7.55;;
25479;SDS011;13393;49.378;8.686;2023-08-17T06:19:35;16.23;;;10.02;;
25479;SDS011;13393;49.378;8.686;2023-08-17T06:22:01;13.32;;;10.13;;
25479;SDS011;13393;49.378;8.686;2023-08-17T06:24:28;12.48;;;10.05;;
25479;SDS011;13393;49.378;8.686;2023-08-17T06:26:57;14.13;;;10.38;;
25479;SDS011;13393;49.378;8.686;2023-08-17T06:29:23;15.20;;;10.30;;
25479;SDS011;13393;49.378;8.686;2023-08-17T06:31:49;11.40;;;10.00;;
25479;SDS011;13393;49.378;8.686;2023-08-17T06:34:17;17.73;;;11.07;;
25479;SDS011;13393;49.378;8.686;2023-08-17T06:36:53;17.23;;;11.30;;
25479;SDS011;13393;49.378;8.686;2023-08-17T06:39:22;13.93;;;11.35;;
25479;SDS011;13393;49.378;8.686;2023-08-17T06:41:48;16.90;;;11.23;;
25479;SDS011;13393;49.378;8.686;2023-08-17T06:44:15;16.40;;;11.70;;
25479;SDS011;13393;49.378;8.686;2023-08-17T06:46:41;17.10;;;14.23;;
25479;SDS011;13393;49.378;8.686;2023-08-17T06:49:10;15.88;;;12.38;;
25479;SDS011;13393;49.378;8.686;2023-08-17T06:51:39;15.27;;;11.65;;
25479;SDS011;13393;49.378;8.686;2023-08-17T06:54:07;19.02;;;10.73;;
25479;SDS011;13393;49.378;8.686;2023-08-17T06:56:33;13.40;;;11.45;;
25479;SDS011;13393;49.378;8.686;2023-08-17T06:59:00;14.20;;;11.18;;
25479;SDS011;13393;49.378;8.686;2023-08-17T07:01:28;14.02;;;10.88;;
25479;SDS011;13393;49.378;8.686;2023-08-17T07:03:54;18.48;;;12.23;;
25479;SDS011;13393;49.378;8.686;2023-08-17T07:06:22;21.90;;;14.23;;
25479;SDS011;13393;49.378;8.686;2023-08-17T07:08:50;22.92;;;15.35;;
25479;SDS011;13393;49.378;8.686;2023-08-17T07:11:17;18.73;;;14.05;;
25479;SDS011;13393;49.378;8.686;2023-08-17T07:13:44;20.33;;;15.27;;
25479;SDS011;13393;49.378;8.686;2023-08-17T07:16:10;20.23;;;15.60;;
25479;SDS011;13393;49.378;8.686;2023-08-17T07:18:38;19.35;;;14.30;;
25479;SDS011;13393;49.378;8.686;2023-08-17T07:21:05;19.80;;;14.45;;
25479;SDS011;13393;49.378;8.686;2023-08-17T07:23:32;18.38;;;13.57;;
25479;SDS011;13393;49.378;8.686;2023-08-17T07:26:00;16.83;;;12.98;;
25479;SDS011;13393;49.378;8.686;2023-08-17T07:28:26;16.75;;;13.45;;
25479;SDS011;13393;49.378;8.686;2023-08-17T07:30:52;21.30;;;14.90;;
25479;SDS011;13393;49.378;8.686;2023-08-17T07:33:19;25.42;;;16.63;;
25479;SDS011;13393;49.378;8.686;2023-08-17T07:35:46;21.13;;;16.33;;
25479;SDS011;13393;49.378;8.686;2023-08-17T07:38:13;20.85;;;14.57;;
25479;SDS011;13393;49.378;8.686;2023-08-17T07:40:39;16.15;;;12.52;;
25479;SDS011;13393;49.378;8.686;2023-08-17T07:43:09;15.13;;;12.05;;
25479;SDS011;13393;49.378;8.686;2023-08-17T07:45:36;15.25;;;11.82;;
25479;SDS011;13393;49.378;8.686;2023-08-17T07:48:03;16.88;;;12.70;;
25479;SDS011;13393;49.378;8.686;2023-08-17T07:50:30;14.02;;;12.30;;
25479;SDS011;13393;49.378;8.686;2023-08-17T07:52:57;17.30;;;13.25;;
25479;SDS011;13393;49.378;8.686;2023-08-17T07:55:25;18.33;;;13.48;;
25479;SDS011;13393;49.378;8.686;2023-08-17T07:57:52;16.67;;;13.38;;
25479;SDS011;13393;49.378;8.686;2023-08-17T08:00:20;16.40;;;12.10;;
25479;SDS011;13393;49.378;8.686;2023-08-17T08:02:46;15.63;;;13.80;;
25479;SDS011;13393;49.378;8.686;2023-08-17T08:05:13;18.13;;;13.32;;
25479;SDS011;13393;49.378;8.686;2023-08-17T08:07:40;18.27;;;13.82;;
25479;SDS011;13393;49.378;8.686;2023-08-17T08:10:15;18.23;;;14.73;;
25479;SDS011;13393;49.378;8.686;2023-08-17T08:12:44;22.00;;;16.85;;
25479;SDS011;13393;49.378;8.686;2023-08-17T08:15:11;20.92;;;17.23;;
25479;SDS011;13393;49.378;8.686;2023-08-17T08:17:43;28.02;;;19.83;;
25479;SDS011;13393;49.378;8.686;2023-08-17T08:20:10;28.10;;;20.15;;
25479;SDS011;13393;49.378;8.686;2023-08-17T08:22:36;23.55;;;18.48;;
25479;SDS011;13393;49.378;8.686;2023-08-17T08:25:03;26.58;;;17.80;;
25479;SDS011;13393;49.378;8.686;2023-08-17T08:27:30;27.30;;;19.52;;
25479;SDS011;13393;49.378;8.686;2023-08-17T08:29:56;23.30;;;18.13;;
25479;SDS011;13393;49.378;8.686;2023-08-17T08:32:24;23.33;;;17.75;;
25479;SDS011;13393;49.378;8.686;2023-08-17T08:34:52;22.08;;;15.82;;
25479;SDS011;13393;49.378;8.686;2023-08-17T08:37:19;19.60;;;15.38;;
25479;SDS011;13393;49.378;8.686;2023-08-17T08:39:48;18.17;;;14.10;;
25479;SDS011;13393;49.378;8.686;2023-08-17T08:42:16;20.17;;;14.65;;
25479;SDS011;13393;49.378;8.686;2023-08-17T08:44:43;17.77;;;13.60;;
25479;SDS011;13393;49.378;8.686;2023-08-17T08:47:09;14.50;;;12.65;;
25479;SDS011;13393;49.378;8.686;2023-08-17T08:49:36;15.38;;;12.07;;
25479;SDS011;13393;49.378;8.686;2023-08-17T08:52:06;17.08;;;14.18;;
25479;SDS011;13393;49.378;8.686;2023-08-17T08:54:33;15.95;;;12.75;;
25479;SDS011;13393;49.378;8.686;2023-08-17T08:57:01;16.23;;;13.13;;
25479;SDS011;13393;49.378;8.686;2023-08-17T08:59:29;14.80;;;12.40;;
25479;SDS011;13393;49.378;8.686;2023-08-17T09:01:57;14.75;;;11.75;;
25479;SDS011;13393;49.378;8.686;2023-08-17T09:04:24;12.48;;;10.68;;
25479;SDS011;13393;49.378;8.686;2023-08-17T09:06:51;12.25;;;11.05;;
25479;SDS011;13393;49.378;8.686;2023-08-17T09:09:19;14.45;;;10.40;;
25479;SDS011;13393;49.378;8.686;2023-08-17T09:11:46;14.55;;;12.65;;
25479;SDS011;13393;49.378;8.686;2023-08-17T09:14:12;12.52;;;10.80;;
25479;SDS011;13393;49.378;8.686;2023-08-17T09:16:39;11.40;;;10.20;;
25479;SDS011;13393;49.378;8.686;2023-08-17T09:19:05;11.60;;;9.45;;
25479;SDS011;13393;49.378;8.686;2023-08-17T09:21:32;12.82;;;10.13;;
25479;SDS011;13393;49.378;8.686;2023-08-17T09:23:59;12.00;;;10.60;;
25479;SDS011;13393;49.378;8.686;2023-08-17T09:26:29;11.23;;;10.02;;
25479;SDS011;13393;49.378;8.686;2023-08-17T09:28:56;11.55;;;9.75;;
25479;SDS011;13393;49.378;8.686;2023-08-17T09:31:24;11.48;;;9.23;;
25479;SDS011;13393;49.378;8.686;2023-08-17T09:33:50;14.35;;;9.55;;
25479;SDS011;13393;49.378;8.686;2023-08-17T09:36:19;11.88;;;9.13;;
25479;SDS011;13393;49.378;8.686;2023-08-17T09:38:47;11.13;;;9.85;;
25479;SDS011;13393;49.378;8.686;2023-08-17T09:41:14;10.10;;;8.77;;
25479;SDS011;13393;49.378;8.686;2023-08-17T09:43:42;10.40;;;9.15;;
25479;SDS011;13393;49.378;8.686;2023-08-17T09:46:09;9.98;;;7.30;;
25479;SDS011;13393;49.378;8.686;2023-08-17T09:48:36;6.88;;;6.18;;
25479;SDS011;13393;49.378;8.686;2023-08-17T09:51:03;6.15;;;5.65;;
25479;SDS011;13393;49.378;8.686;2023-08-17T09:53:33;7.03;;;5.70;;
25479;SDS011;13393;49.378;8.686;2023-08-17T09:56:00;11.32;;;6.78;;
25479;SDS011;13393;49.378;8.686;2023-08-17T09:58:29;6.68;;;5.45;;
25479;SDS011;13393;49.378;8.686;2023-08-17T10:00:57;5.47;;;4.93;;
25479;SDS011;13393;49.378;8.686;2023-08-17T10:03:25;8.27;;;5.40;;
25479;SDS011;13393;49.378;8.686;2023-08-17T10:05:55;8.13;;;5.63;;
25479;SDS011;13393;49.378;8.686;2023-08-17T10:08:25;7.03;;;5.60;;
25479;SDS011;13393;49.378;8.686;2023-08-17T10:10:56;9.27;;;6.18;;
25479;SDS011;13393;49.378;8.686;2023-08-17T10:13:25;10.93;;;5.18;;
25479;SDS011;13393;49.378;8.686;2023-08-17T10:15:55;7.00;;;6.30;;
25479;SDS011;13393;49.378;8.686;2023-08-17T10:18:27;6.10;;;5.50;;
25479;SDS011;13393;49.378;8.686;2023-08-17T10:20:57;6.90;;;5.40;;
25479;SDS011;13393;49.378;8.686;2023-08-17T10:23:27;6.97;;;4.70;;
25479;SDS011;13393;49.378;8.686;2023-08-17T10:25:54;5.97;;;5.32;;
25479;SDS011;13393;49.378;8.686;2023-08-17T10:28:21;6.53;;;5.07;;
25479;SDS011;13393;49.378;8.686;2023-08-17T10:30:49;5.72;;;4.85;;
25479;SDS011;13393;49.378;8.686;2023-08-17T10:33:16;6.80;;;4.63;;
25479;SDS011;13393;49.378;8.686;2023-08-17T10:35:45;6.75;;;5.00;;
25479;SDS011;13393;49.378;8.686;2023-08-17T10:38:14;6.10;;;5.50;;
25479;SDS011;13393;49.378;8.686;2023-08-17T10:40:42;9.23;;;5.38;;
25479;SDS011;13393;49.378;8.686;2023-08-17T10:43:08;8.38;;;6.03;;
25479;SDS011;13393;49.378;8.686;2023-08-17T10:45:36;7.22;;;5.50;;
25479;SDS011;13393;49.378;8.686;2023-08-17T10:51:00;6.85;;;5.25;;
25479;SDS011;13393;49.378;8.686;2023-08-17T10:53:27;6.00;;;5.30;;
25479;SDS011;13393;49.378;8.686;2023-08-17T10:56:00;7.00;;;5.20;;
25479;SDS011;13393;49.378;8.686;2023-08-17T10:58:30;6.28;;;5.68;;
25479;SDS011;13393;49.378;8.686;2023-08-17T11:00:57;7.97;;;5.50;;
25479;SDS011;13393;49.378;8.686;2023-08-17T11:03:25;5.85;;;5.35;;
25479;SDS011;13393;49.378;8.686;2023-08-17T11:05:53;7.70;;;5.78;;
25479;SDS011;13393;49.378;8.686;2023-08-17T11:14:22;6.80;;;4.80;;
25479;SDS011;13393;49.378;8.686;2023-08-17T11:16:49;8.05;;;6.10;;
25479;SDS011;13393;49.378;8.686;2023-08-17T11:19:17;8.48;;;5.97;;
25479;SDS011;13393;49.378;8.686;2023-08-17T11:21:44;8.15;;;4.80;;
25479;SDS011;13393;49.378;8.686;2023-08-17T11:24:11;6.00;;;5.47;;
25479;SDS011;13393;49.378;8.686;2023-08-17T11:26:38;5.93;;;5.32;;
25479;SDS011;13393;49.378;8.686;2023-08-17T11:29:10;7.57;;;5.38;;
25479;SDS011;13393;49.378;8.686;2023-08-17T11:31:40;5.38;;;4.85;;
25479;SDS011;13393;49.378;8.686;2023-08-17T11:34:12;6.93;;;5.05;;
25479;SDS011;13393;49.378;8.686;2023-08-17T11:36:40;4.82;;;4.32;;
25479;SDS011;13393;49.378;8.686;2023-08-17T11:39:06;4.93;;;4.22;;
25479;SDS011;13393;49.378;8.686;2023-08-17T11:41:33;5.00;;;4.35;;
25479;SDS011;13393;49.378;8.686;2023-08-17T11:43:59;6.55;;;5.20;;
25479;SDS011;13393;49.378;8.686;2023-08-17T11:46:26;5.60;;;4.97;;
25479;SDS011;13393;49.378;8.686;2023-08-17T11:48:55;5.22;;;4.25;;
25479;SDS011;13393;49.378;8.686;2023-08-17T11:51:28;4.03;;;3.63;;
25479;SDS011;13393;49.378;8.686;2023-08-17T11:53:58;6.38;;;4.25;;
25479;SDS011;13393;49.378;8.686;2023-08-17T11:56:25;6.20;;;3.72;;
25479;SDS011;13393;49.378;8.686;2023-08-17T11:58:53;6.68;;;3.45;;
25479;SDS011;13393;49.378;8.686;2023-08-17T12:01:19;8.23;;;4.50;;
25479;SDS011;13393;49.378;8.686;2023-08-17T12:03:47;4.50;;;4.05;;
25479;SDS011;13393;49.378;8.686;2023-08-17T12:06:16;4.22;;;3.83;;
25479;SDS011;13393;49.378;8.686;2023-08-17T12:08:43;8.82;;;4.57;;
25479;SDS011;13393;49.378;8.686;2023-08-17T12:11:10;5.70;;;3.90;;
25479;SDS011;13393;49.378;8.686;2023-08-17T12:13:42;6.05;;;3.63;;
25479;SDS011;13393;49.378;8.686;2023-08-17T12:16:14;7.10;;;4.63;;
25479;SDS011;13393;49.378;8.686;2023-08-17T12:18:43;4.72;;;4.25;;
25479;SDS011;13393;49.378;8.686;2023-08-17T12:21:10;10.35;;;4.38;;
25479;SDS011;13393;49.378;8.686;2023-08-17T12:23:38;5.10;;;3.85;;
25479;SDS011;13393;49.378;8.686;2023-08-17T12:26:06;4.47;;;4.07;;
25479;SDS011;13393;49.378;8.686;2023-08-17T12:28:33;14.32;;;5.10;;
25479;SDS011;13393;49.378;8.686;2023-08-17T12:31:00;5.32;;;4.22;;
25479;SDS011;13393;49.378;8.686;2023-08-17T12:33:28;21.08;;;5.50;;
25479;SDS011;13393;49.378;8.686;2023-08-17T12:35:55;6.15;;;3.97;;
25479;SDS011;13393;49.378;8.686;2023-08-17T12:38:22;6.85;;;4.05;;
25479;SDS011;13393;49.378;8.686;2023-08-17T12:40:52;12.32;;;4.07;;
25479;SDS011;13393;49.378;8.686;2023-08-17T12:43:18;7.18;;;4.20;;
25479;SDS011;13393;49.378;8.686;2023-08-17T12:45:45;4.20;;;3.80;;
25479;SDS011;13393;49.378;8.686;2023-08-17T12:48:12;10.73;;;4.28;;
25479;SDS011;13393;49.378;8.686;2023-08-17T12:50:38;6.22;;;4.28;;
25479;SDS011;13393;49.378;8.686;2023-08-17T12:53:05;5.97;;;4.00;;
25479;SDS011;13393;49.378;8.686;2023-08-17T12:55:31;4.57;;;3.90;;
25479;SDS011;13393;49.378;8.686;2023-08-17T12:57:59;7.00;;;4.00;;
25479;SDS011;13393;49.378;8.686;2023-08-17T13:00:26;5.35;;;4.60;;
25479;SDS011;13393;49.378;8.686;2023-08-17T13:02:52;7.63;;;3.65;;
25479;SDS011;13393;49.378;8.686;2023-08-17T13:05:21;4.00;;;3.63;;
25479;SDS011;13393;49.378;8.686;2023-08-17T13:07:47;4.97;;;3.42;;
25479;SDS011;13393;49.378;8.686;2023-08-17T13:10:14;6.20;;;3.50;;
25479;SDS011;13393;49.378;8.686;2023-08-17T13:12:41;4.97;;;4.03;;
25479;SDS011;13393;49.378;8.686;2023-08-17T13:15:11;3.83;;;3.53;;
25479;SDS011;13393;49.378;8.686;2023-08-17T13:17:37;5.50;;;3.13;;
25479;SDS011;13393;49.378;8.686;2023-08-17T13:20:07;4.45;;;3.35;;
25479;SDS011;13393;49.378;8.686;2023-08-17T13:22:34;7.15;;;3.45;;
25479;SDS011;13393;49.378;8.686;2023-08-17T13:25:01;6.30;;;3.33;;
25479;SDS011;13393;49.378;8.686;2023-08-17T13:27:27;4.68;;;3.78;;
25479;SDS011;13393;49.378;8.686;2023-08-17T13:29:53;4.38;;;3.72;;
25479;SDS011;13393;49.378;8.686;2023-08-17T13:32:24;4.00;;;3.63;;
25479;SDS011;13393;49.378;8.686;2023-08-17T13:34:54;3.72;;;3.40;;
25479;SDS011;13393;49.378;8.686;2023-08-17T13:37:21;5.68;;;3.63;;
25479;SDS011;13393;49.378;8.686;2023-08-17T13:39:48;4.95;;;3.22;;
25479;SDS011;13393;49.378;8.686;2023-08-17T13:42:14;7.55;;;3.60;;
25479;SDS011;13393;49.378;8.686;2023-08-17T13:44:41;5.40;;;3.30;;
25479;SDS011;13393;49.378;8.686;2023-08-17T13:47:09;5.03;;;3.40;;
25479;SDS011;13393;49.378;8.686;2023-08-17T13:49:38;5.10;;;3.47;;
25479;SDS011;13393;49.378;8.686;2023-08-17T13:52:04;5.38;;;2.92;;
25479;SDS011;13393;49.378;8.686;2023-08-17T13:54:31;4.70;;;3.03;;
25479;SDS011;13393;49.378;8.686;2023-08-17T13:56:58;3.05;;;2.85;;
25479;SDS011;13393;49.378;8.686;2023-08-17T13:59:25;3.75;;;3.42;;
25479;SDS011;13393;49.378;8.686;2023-08-17T14:01:52;3.67;;;3.10;;
25479;SDS011;13393;49.378;8.686;2023-08-17T14:04:20;5.53;;;3.33;;
25479;SDS011;13393;49.378;8.686;2023-08-17T14:06:50;3.92;;;3.08;;
25479;SDS011;13393;49.378;8.686;2023-08-17T14:09:20;5.93;;;3.05;;
25479;SDS011;13393;49.378;8.686;2023-08-17T14:11:49;3.03;;;2.83;;
25479;SDS011;13393;49.378;8.686;2023-08-17T14:14:15;6.20;;;3.00;;
25479;SDS011;13393;49.378;8.686;2023-08-17T14:16:42;3.70;;;3.05;;
25479;SDS011;13393;49.378;8.686;2023-08-17T14:19:11;5.13;;;2.97;;
25479;SDS011;13393;49.378;8.686;2023-08-17T14:21:37;4.03;;;2.83;;
25479;SDS011;13393;49.378;8.686;2023-08-17T14:24:06;2.85;;;2.65;;
25479;SDS011;13393;49.378;8.686;2023-08-17T14:26:34;5.75;;;3.03;;
25479;SDS011;13393;49.378;8.686;2023-08-17T14:29:01;3.65;;;2.85;;
25479;SDS011;13393;49.378;8.686;2023-08-17T14:31:28;4.28;;;2.78;;
25479;SDS011;13393;49.378;8.686;2023-08-17T14:33:54;2.60;;;2.40;;
25479;SDS011;13393;49.378;8.686;2023-08-17T14:36:27;6.40;;;2.80;;
25479;SDS011;13393;49.378;8.686;2023-08-17T14:38:55;2.92;;;2.72;;
25479;SDS011;13393;49.378;8.686;2023-08-17T14:41:26;5.53;;;2.90;;
25479;SDS011;13393;49.378;8.686;2023-08-17T14:43:57;3.05;;;2.40;;
25479;SDS011;13393;49.378;8.686;2023-08-17T14:46:24;3.63;;;2.42;;
25479;SDS011;13393;49.378;8.686;2023-08-17T14:48:50;2.60;;;2.40;;
25479;SDS011;13393;49.378;8.686;2023-08-17T14:51:17;2.83;;;2.40;;